sensor_id;sensor_type;location;lat;lon;timestamp;P1;durP1;ratioP1;P2;durP2;ratioP2
53674;SDS011;39574;50.534;8.500;2022-11-15T00:03:18;12.5;;;7.8;;
53674;SDS011;39574;50.534;8.500;2022-11-15T00:08:16;10.4;;;6.1;;
53674;SDS011;39574;50.534;8.500;2022-11-15T00:13:16;8.6;;;5.1;;
53674;SDS011;39574;50.534;8.500;2022-11-15T00:18:14;8.0;;;4.8;;
53674;SDS011;39574;50.534;8.500;2022-11-15T00:23:13;7.5;;;4.7;;
53674;SDS011;39574;50.534;8.500;2022-11-15T00:28:12;8.7;;;4.9;;
53674;SDS011;39574;50.534;8.500;2022-11-15T00:33:11;8.8;;;4.8;;
53674;SDS011;39574;50.534;8.500;2022-11-15T00:38:10;8.3;;;4.6;;
53674;SDS011;39574;50.534;8.500;2022-11-15T00:43:09;8.5;;;4.4;;
53674;SDS011;39574;50.534;8.500;2022-11-15T00:48:08;8.0;;;4.3;;
53674;SDS011;39574;50.534;8.500;2022-11-15T00:53:07;7.6;;;4.4;;
53674;SDS011;39574;50.534;8.500;2022-11-15T00:58:06;8.5;;;4.7;;
53674;SDS011;39574;50.534;8.500;2022-11-15T01:03:05;12.2;;;6.9;;
53674;SDS011;39574;50.534;8.500;2022-11-15T01:08:03;12.5;;;7.6;;
53674;SDS011;39574;50.534;8.500;2022-11-15T01:13:03;14.0;;;8.6;;
53674;SDS011;39574;50.534;8.500;2022-11-15T01:18:02;15.4;;;9.2;;
53674;SDS011;39574;50.534;8.500;2022-11-15T01:23:01;14.7;;;9.1;;
53674;SDS011;39574;50.534;8.500;2022-11-15T01:27:59;14.1;;;9.0;;
53674;SDS011;39574;50.534;8.500;2022-11-15T01:32:59;12.9;;;8.8;;
53674;SDS011;39574;50.534;8.500;2022-11-15T01:37:57;12.4;;;8.6;;
53674;SDS011;39574;50.534;8.500;2022-11-15T01:42:57;12.4;;;8.6;;
53674;SDS011;39574;50.534;8.500;2022-11-15T01:52:54;12.7;;;8.4;;
53674;SDS011;39574;50.534;8.500;2022-11-15T01:57:54;14.4;;;9.0;;
53674;SDS011;39574;50.534;8.500;2022-11-15T02:02:53;13.6;;;8.7;;
53674;SDS011;39574;50.534;8.500;2022-11-15T02:07:51;12.7;;;7.6;;
53674;SDS011;39574;50.534;8.500;2022-11-15T02:12:51;13.3;;;8.1;;
53674;SDS011;39574;50.534;8.500;2022-11-15T02:18:07;12.8;;;8.1;;
53674;SDS011;39574;50.534;8.500;2022-11-15T02:22:53;12.3;;;7.7;;
53674;SDS011;39574;50.534;8.500;2022-11-15T02:27:52;11.7;;;7.0;;
53674;SDS011;39574;50.534;8.500;2022-11-15T02:32:48;10.2;;;6.2;;
53674;SDS011;39574;50.534;8.500;2022-11-15T02:37:45;11.2;;;7.0;;
53674;SDS011;39574;50.534;8.500;2022-11-15T02:42:45;13.2;;;7.9;;
53674;SDS011;39574;50.534;8.500;2022-11-15T02:47:44;12.9;;;8.1;;
53674;SDS011;39574;50.534;8.500;2022-11-15T02:52:44;13.3;;;8.2;;
53674;SDS011;39574;50.534;8.500;2022-11-15T02:57:43;12.7;;;7.7;;
53674;SDS011;39574;50.534;8.500;2022-11-15T03:02:42;11.6;;;7.3;;
53674;SDS011;39574;50.534;8.500;2022-11-15T03:07:39;11.6;;;7.2;;
53674;SDS011;39574;50.534;8.500;2022-11-15T03:12:38;12.6;;;7.2;;
53674;SDS011;39574;50.534;8.500;2022-11-15T03:17:37;12.5;;;7.6;;
53674;SDS011;39574;50.534;8.500;2022-11-15T03:22:36;12.5;;;7.9;;
53674;SDS011;39574;50.534;8.500;2022-11-15T03:27:35;13.1;;;8.2;;
53674;SDS011;39574;50.534;8.500;2022-11-15T03:32:34;12.0;;;8.0;;
53674;SDS011;39574;50.534;8.500;2022-11-15T03:37:33;12.0;;;8.1;;
53674;SDS011;39574;50.534;8.500;2022-11-15T03:47:31;11.2;;;8.0;;
53674;SDS011;39574;50.534;8.500;2022-11-15T03:52:30;10.2;;;6.9;;
53674;SDS011;39574;50.534;8.500;2022-11-15T03:57:28;9.7;;;6.0;;
53674;SDS011;39574;50.534;8.500;2022-11-15T04:02:27;8.9;;;5.2;;
53674;SDS011;39574;50.534;8.500;2022-11-15T04:07:25;8.7;;;5.1;;
53674;SDS011;39574;50.534;8.500;2022-11-15T04:12:25;7.8;;;4.8;;
53674;SDS011;39574;50.534;8.500;2022-11-15T04:17:24;7.7;;;4.8;;
53674;SDS011;39574;50.534;8.500;2022-11-15T04:22:23;7.6;;;4.6;;
53674;SDS011;39574;50.534;8.500;2022-11-15T04:27:22;7.2;;;4.4;;
53674;SDS011;39574;50.534;8.500;2022-11-15T04:32:21;7.3;;;4.4;;
53674;SDS011;39574;50.534;8.500;2022-11-15T04:37:20;6.4;;;4.2;;
53674;SDS011;39574;50.534;8.500;2022-11-15T04:42:18;5.9;;;4.1;;
53674;SDS011;39574;50.534;8.500;2022-11-15T04:47:18;5.3;;;3.9;;
53674;SDS011;39574;50.534;8.500;2022-11-15T04:52:17;5.1;;;3.6;;
53674;SDS011;39574;50.534;8.500;2022-11-15T05:02:14;5.5;;;3.5;;
53674;SDS011;39574;50.534;8.500;2022-11-15T05:07:14;5.6;;;3.4;;
53674;SDS011;39574;50.534;8.500;2022-11-15T05:12:13;5.4;;;3.3;;
53674;SDS011;39574;50.534;8.500;2022-11-15T05:17:11;5.0;;;3.3;;
53674;SDS011;39574;50.534;8.500;2022-11-15T05:22:10;4.4;;;3.2;;
53674;SDS011;39574;50.534;8.500;2022-11-15T05:27:09;5.0;;;3.4;;
53674;SDS011;39574;50.534;8.500;2022-11-15T05:32:09;5.2;;;3.3;;
53674;SDS011;39574;50.534;8.500;2022-11-15T05:37:07;5.5;;;3.3;;
53674;SDS011;39574;50.534;8.500;2022-11-15T05:42:07;5.6;;;3.4;;
53674;SDS011;39574;50.534;8.500;2022-11-15T05:47:05;5.6;;;3.4;;
53674;SDS011;39574;50.534;8.500;2022-11-15T05:52:05;6.3;;;3.4;;
53674;SDS011;39574;50.534;8.500;2022-11-15T05:57:04;6.0;;;3.5;;
53674;SDS011;39574;50.534;8.500;2022-11-15T06:02:02;5.5;;;3.5;;
53674;SDS011;39574;50.534;8.500;2022-11-15T06:07:01;5.2;;;3.5;;
53674;SDS011;39574;50.534;8.500;2022-11-15T06:12:00;5.4;;;3.6;;
53674;SDS011;39574;50.534;8.500;2022-11-15T06:17:00;5.2;;;3.4;;
53674;SDS011;39574;50.534;8.500;2022-11-15T06:21:58;5.8;;;3.4;;
53674;SDS011;39574;50.534;8.500;2022-11-15T06:26:57;9.9;;;6.3;;
53674;SDS011;39574;50.534;8.500;2022-11-15T06:31:56;12.0;;;7.6;;
53674;SDS011;39574;50.534;8.500;2022-11-15T06:36:55;11.2;;;7.3;;
53674;SDS011;39574;50.534;8.500;2022-11-15T06:41:53;9.7;;;6.0;;
53674;SDS011;39574;50.534;8.500;2022-11-15T06:46:53;7.4;;;4.7;;
53674;SDS011;39574;50.534;8.500;2022-11-15T06:51:52;6.6;;;4.0;;
53674;SDS011;39574;50.534;8.500;2022-11-15T06:56:51;6.4;;;4.1;;
53674;SDS011;39574;50.534;8.500;2022-11-15T07:01:50;6.7;;;4.7;;
53674;SDS011;39574;50.534;8.500;2022-11-15T07:11:48;7.0;;;5.1;;
53674;SDS011;39574;50.534;8.500;2022-11-15T07:16:47;7.7;;;5.6;;
53674;SDS011;39574;50.534;8.500;2022-11-15T07:21:45;7.9;;;5.5;;
53674;SDS011;39574;50.534;8.500;2022-11-15T07:26:44;7.8;;;5.3;;
53674;SDS011;39574;50.534;8.500;2022-11-15T07:31:44;7.6;;;5.3;;
53674;SDS011;39574;50.534;8.500;2022-11-15T07:36:43;8.5;;;6.2;;
53674;SDS011;39574;50.534;8.500;2022-11-15T07:41:42;9.0;;;6.4;;
53674;SDS011;39574;50.534;8.500;2022-11-15T07:46:41;9.2;;;6.4;;
53674;SDS011;39574;50.534;8.500;2022-11-15T07:51:40;9.7;;;6.4;;
53674;SDS011;39574;50.534;8.500;2022-11-15T07:56:38;9.4;;;6.0;;
53674;SDS011;39574;50.534;8.500;2022-11-15T08:01:38;9.8;;;6.0;;
53674;SDS011;39574;50.534;8.500;2022-11-15T08:06:37;9.9;;;6.1;;
53674;SDS011;39574;50.534;8.500;2022-11-15T08:11:35;9.9;;;6.4;;
53674;SDS011;39574;50.534;8.500;2022-11-15T08:16:34;9.6;;;6.4;;
53674;SDS011;39574;50.534;8.500;2022-11-15T08:21:33;8.9;;;6.4;;
53674;SDS011;39574;50.534;8.500;2022-11-15T08:26:33;9.6;;;6.8;;
53674;SDS011;39574;50.534;8.500;2022-11-15T08:31:32;10.2;;;6.9;;
53674;SDS011;39574;50.534;8.500;2022-11-15T08:36:30;10.6;;;7.0;;
53674;SDS011;39574;50.534;8.500;2022-11-15T08:41:31;11.7;;;7.5;;
53674;SDS011;39574;50.534;8.500;2022-11-15T08:46:28;12.5;;;8.0;;
53674;SDS011;39574;50.534;8.500;2022-11-15T08:51:27;11.9;;;7.8;;
53674;SDS011;39574;50.534;8.500;2022-11-15T08:56:26;10.8;;;7.4;;
53674;SDS011;39574;50.534;8.500;2022-11-15T09:01:25;10.2;;;7.2;;
53674;SDS011;39574;50.534;8.500;2022-11-15T09:06:24;10.9;;;7.6;;
53674;SDS011;39574;50.534;8.500;2022-11-15T09:11:24;11.9;;;8.0;;
53674;SDS011;39574;50.534;8.500;2022-11-15T09:16:22;13.2;;;8.3;;
53674;SDS011;39574;50.534;8.500;2022-11-15T09:21:21;13.4;;;8.3;;
53674;SDS011;39574;50.534;8.500;2022-11-15T09:31:20;14.6;;;9.6;;
53674;SDS011;39574;50.534;8.500;2022-11-15T09:36:18;14.4;;;9.8;;
53674;SDS011;39574;50.534;8.500;2022-11-15T09:41:25;12.9;;;9.0;;
53674;SDS011;39574;50.534;8.500;2022-11-15T09:46:17;12.5;;;8.6;;
53674;SDS011;39574;50.534;8.500;2022-11-15T09:51:18;12.1;;;7.6;;
53674;SDS011;39574;50.534;8.500;2022-11-15T09:56:15;10.8;;;6.7;;
53674;SDS011;39574;50.534;8.500;2022-11-15T10:01:15;10.0;;;6.0;;
53674;SDS011;39574;50.534;8.500;2022-11-15T10:06:15;9.5;;;5.8;;
53674;SDS011;39574;50.534;8.500;2022-11-15T10:11:15;13.6;;;7.8;;
53674;SDS011;39574;50.534;8.500;2022-11-15T10:16:15;14.5;;;8.4;;
53674;SDS011;39574;50.534;8.500;2022-11-15T10:21:12;13.1;;;7.8;;
53674;SDS011;39574;50.534;8.500;2022-11-15T10:26:10;11.0;;;6.8;;
53674;SDS011;39574;50.534;8.500;2022-11-15T10:31:21;10.8;;;6.1;;
53674;SDS011;39574;50.534;8.500;2022-11-15T10:36:15;10.5;;;5.8;;
53674;SDS011;39574;50.534;8.500;2022-11-15T10:41:06;10.2;;;5.7;;
53674;SDS011;39574;50.534;8.500;2022-11-15T10:46:16;10.1;;;5.5;;
53674;SDS011;39574;50.534;8.500;2022-11-15T10:51:04;8.6;;;5.4;;
53674;SDS011;39574;50.534;8.500;2022-11-15T10:56:05;8.3;;;5.6;;
53674;SDS011;39574;50.534;8.500;2022-11-15T11:01:19;9.4;;;5.8;;
53674;SDS011;39574;50.534;8.500;2022-11-15T11:06:04;9.4;;;5.9;;
53674;SDS011;39574;50.534;8.500;2022-11-15T11:11:02;9.6;;;6.1;;
53674;SDS011;39574;50.534;8.500;2022-11-15T11:21:00;7.5;;;4.8;;
53674;SDS011;39574;50.534;8.500;2022-11-15T11:26:01;6.0;;;3.8;;
53674;SDS011;39574;50.534;8.500;2022-11-15T11:31:00;5.0;;;2.9;;
53674;SDS011;39574;50.534;8.500;2022-11-15T11:35:59;4.3;;;2.6;;
53674;SDS011;39574;50.534;8.500;2022-11-15T11:40:59;3.7;;;2.2;;
53674;SDS011;39574;50.534;8.500;2022-11-15T11:45:59;3.3;;;1.9;;
53674;SDS011;39574;50.534;8.500;2022-11-15T11:50:53;3.3;;;1.7;;
53674;SDS011;39574;50.534;8.500;2022-11-15T11:55:53;3.7;;;1.7;;
53674;SDS011;39574;50.534;8.500;2022-11-15T12:00:52;3.5;;;1.7;;
53674;SDS011;39574;50.534;8.500;2022-11-15T12:05:51;3.5;;;1.8;;
53674;SDS011;39574;50.534;8.500;2022-11-15T12:10:50;4.0;;;2.2;;
53674;SDS011;39574;50.534;8.500;2022-11-15T12:15:50;3.9;;;2.2;;
53674;SDS011;39574;50.534;8.500;2022-11-15T12:25:49;3.9;;;2.2;;
53674;SDS011;39574;50.534;8.500;2022-11-15T12:30:48;4.4;;;2.2;;
53674;SDS011;39574;50.534;8.500;2022-11-15T12:35:56;4.5;;;2.3;;
53674;SDS011;39574;50.534;8.500;2022-11-15T12:41:11;4.5;;;2.3;;
53674;SDS011;39574;50.534;8.500;2022-11-15T12:50:58;4.3;;;2.4;;
53674;SDS011;39574;50.534;8.500;2022-11-15T12:55:42;3.9;;;2.3;;
53674;SDS011;39574;50.534;8.500;2022-11-15T13:00:41;3.6;;;2.3;;
53674;SDS011;39574;50.534;8.500;2022-11-15T13:05:57;3.8;;;2.3;;
53674;SDS011;39574;50.534;8.500;2022-11-15T13:10:39;4.0;;;2.3;;
53674;SDS011;39574;50.534;8.500;2022-11-15T13:20:38;4.2;;;2.4;;
53674;SDS011;39574;50.534;8.500;2022-11-15T13:25:43;4.5;;;2.5;;
53674;SDS011;39574;50.534;8.500;2022-11-15T13:30:36;4.7;;;2.7;;
53674;SDS011;39574;50.534;8.500;2022-11-15T13:35:36;4.4;;;2.6;;
53674;SDS011;39574;50.534;8.500;2022-11-15T13:40:35;4.3;;;2.5;;
53674;SDS011;39574;50.534;8.500;2022-11-15T13:45:33;4.6;;;2.6;;
53674;SDS011;39574;50.534;8.500;2022-11-15T13:50:32;4.4;;;2.5;;
53674;SDS011;39574;50.534;8.500;2022-11-15T13:55:31;4.1;;;2.6;;
53674;SDS011;39574;50.534;8.500;2022-11-15T14:05:30;4.2;;;2.9;;
53674;SDS011;39574;50.534;8.500;2022-11-15T14:10:28;5.4;;;3.7;;
53674;SDS011;39574;50.534;8.500;2022-11-15T14:15:28;5.7;;;3.9;;
53674;SDS011;39574;50.534;8.500;2022-11-15T14:20:28;6.1;;;4.3;;
53674;SDS011;39574;50.534;8.500;2022-11-15T14:30:24;6.8;;;4.8;;
53674;SDS011;39574;50.534;8.500;2022-11-15T14:35:23;7.2;;;4.8;;
53674;SDS011;39574;50.534;8.500;2022-11-15T14:40:23;8.7;;;5.5;;
53674;SDS011;39574;50.534;8.500;2022-11-15T14:45:22;16.2;;;11.1;;
53674;SDS011;39574;50.534;8.500;2022-11-15T14:50:21;13.6;;;9.3;;
53674;SDS011;39574;50.534;8.500;2022-11-15T14:55:20;11.2;;;7.5;;
53674;SDS011;39574;50.534;8.500;2022-11-15T15:00:19;8.5;;;5.6;;
53674;SDS011;39574;50.534;8.500;2022-11-15T15:05:19;5.9;;;3.9;;
53674;SDS011;39574;50.534;8.500;2022-11-15T15:10:16;7.0;;;4.4;;
53674;SDS011;39574;50.534;8.500;2022-11-15T15:15:16;7.9;;;5.1;;
53674;SDS011;39574;50.534;8.500;2022-11-15T15:20:15;7.7;;;4.8;;
53674;SDS011;39574;50.534;8.500;2022-11-15T15:25:18;6.9;;;4.5;;
53674;SDS011;39574;50.534;8.500;2022-11-15T15:30:13;7.0;;;4.3;;
53674;SDS011;39574;50.534;8.500;2022-11-15T15:35:13;7.2;;;4.1;;
53674;SDS011;39574;50.534;8.500;2022-11-15T15:40:13;7.5;;;4.3;;
53674;SDS011;39574;50.534;8.500;2022-11-15T15:45:10;6.7;;;4.0;;
53674;SDS011;39574;50.534;8.500;2022-11-15T15:50:16;6.7;;;4.2;;
53674;SDS011;39574;50.534;8.500;2022-11-15T15:55:08;7.0;;;4.2;;
53674;SDS011;39574;50.534;8.500;2022-11-15T16:00:08;7.0;;;4.1;;
53674;SDS011;39574;50.534;8.500;2022-11-15T16:05:06;7.0;;;4.1;;
53674;SDS011;39574;50.534;8.500;2022-11-15T16:20:03;7.6;;;4.3;;
53674;SDS011;39574;50.534;8.500;2022-11-15T16:25:02;7.5;;;4.4;;
53674;SDS011;39574;50.534;8.500;2022-11-15T16:30:01;7.4;;;4.5;;
53674;SDS011;39574;50.534;8.500;2022-11-15T16:35:01;7.0;;;4.3;;
53674;SDS011;39574;50.534;8.500;2022-11-15T16:39:59;6.8;;;4.3;;
53674;SDS011;39574;50.534;8.500;2022-11-15T16:44:59;7.6;;;4.4;;
53674;SDS011;39574;50.534;8.500;2022-11-15T16:49:58;11.4;;;6.7;;
53674;SDS011;39574;50.534;8.500;2022-11-15T16:54:56;15.6;;;9.2;;
53674;SDS011;39574;50.534;8.500;2022-11-15T16:59:56;13.8;;;8.7;;
53674;SDS011;39574;50.534;8.500;2022-11-15T17:04:55;11.3;;;7.2;;
53674;SDS011;39574;50.534;8.500;2022-11-15T17:09:54;10.6;;;6.5;;
53674;SDS011;39574;50.534;8.500;2022-11-15T17:14:53;8.6;;;5.2;;
53674;SDS011;39574;50.534;8.500;2022-11-15T17:19:52;8.2;;;4.5;;
53674;SDS011;39574;50.534;8.500;2022-11-15T17:24:51;7.7;;;4.1;;
53674;SDS011;39574;50.534;8.500;2022-11-15T17:39:48;7.1;;;3.9;;
53674;SDS011;39574;50.534;8.500;2022-11-15T17:44:47;7.4;;;4.3;;
53674;SDS011;39574;50.534;8.500;2022-11-15T18:04:43;7.4;;;4.3;;
53674;SDS011;39574;50.534;8.500;2022-11-15T18:09:42;7.0;;;4.3;;
53674;SDS011;39574;50.534;8.500;2022-11-15T18:14:41;6.5;;;4.2;;
53674;SDS011;39574;50.534;8.500;2022-11-15T18:19:40;6.9;;;4.2;;
53674;SDS011;39574;50.534;8.500;2022-11-15T18:24:39;7.0;;;4.4;;
53674;SDS011;39574;50.534;8.500;2022-11-15T18:29:37;10.4;;;6.5;;
53674;SDS011;39574;50.534;8.500;2022-11-15T18:34:37;13.6;;;8.3;;
53674;SDS011;39574;50.534;8.500;2022-11-15T18:39:36;13.9;;;8.3;;
53674;SDS011;39574;50.534;8.500;2022-11-15T18:44:35;11.7;;;6.9;;
53674;SDS011;39574;50.534;8.500;2022-11-15T18:49:34;8.5;;;5.1;;
53674;SDS011;39574;50.534;8.500;2022-11-15T18:54:33;6.4;;;3.9;;
53674;SDS011;39574;50.534;8.500;2022-11-15T18:59:33;5.4;;;3.4;;
53674;SDS011;39574;50.534;8.500;2022-11-15T19:04:31;5.2;;;3.2;;
53674;SDS011;39574;50.534;8.500;2022-11-15T19:09:30;5.6;;;3.3;;
53674;SDS011;39574;50.534;8.500;2022-11-15T19:14:29;6.3;;;3.6;;
53674;SDS011;39574;50.534;8.500;2022-11-15T19:19:29;7.2;;;4.0;;
53674;SDS011;39574;50.534;8.500;2022-11-15T19:24:27;6.2;;;3.7;;
53674;SDS011;39574;50.534;8.500;2022-11-15T19:29:26;7.2;;;4.3;;
53674;SDS011;39574;50.534;8.500;2022-11-15T19:34:25;6.6;;;4.0;;
53674;SDS011;39574;50.534;8.500;2022-11-15T19:39:24;6.4;;;3.6;;
53674;SDS011;39574;50.534;8.500;2022-11-15T19:44:23;5.6;;;3.3;;
53674;SDS011;39574;50.534;8.500;2022-11-15T19:49:23;5.2;;;3.3;;
53674;SDS011;39574;50.534;8.500;2022-11-15T19:54:22;5.4;;;3.5;;
53674;SDS011;39574;50.534;8.500;2022-11-15T19:59:21;7.1;;;4.1;;
53674;SDS011;39574;50.534;8.500;2022-11-15T20:04:20;8.4;;;4.5;;
53674;SDS011;39574;50.534;8.500;2022-11-15T20:09:18;7.9;;;4.3;;
53674;SDS011;39574;50.534;8.500;2022-11-15T20:14:18;8.0;;;4.6;;
53674;SDS011;39574;50.534;8.500;2022-11-15T20:19:17;10.3;;;5.9;;
53674;SDS011;39574;50.534;8.500;2022-11-15T20:24:16;10.9;;;6.4;;
53674;SDS011;39574;50.534;8.500;2022-11-15T20:29:15;10.9;;;6.9;;
53674;SDS011;39574;50.534;8.500;2022-11-15T20:34:14;10.8;;;7.1;;
53674;SDS011;39574;50.534;8.500;2022-11-15T20:39:13;10.7;;;7.0;;
53674;SDS011;39574;50.534;8.500;2022-11-15T20:44:12;10.4;;;6.9;;
53674;SDS011;39574;50.534;8.500;2022-11-15T20:49:11;10.7;;;6.9;;
53674;SDS011;39574;50.534;8.500;2022-11-15T20:54:10;11.1;;;6.7;;
53674;SDS011;39574;50.534;8.500;2022-11-15T20:59:09;11.1;;;7.0;;
53674;SDS011;39574;50.534;8.500;2022-11-15T21:04:08;10.1;;;6.5;;
53674;SDS011;39574;50.534;8.500;2022-11-15T21:09:07;9.6;;;6.1;;
53674;SDS011;39574;50.534;8.500;2022-11-15T21:14:06;9.9;;;6.6;;
53674;SDS011;39574;50.534;8.500;2022-11-15T21:19:05;10.1;;;6.6;;
53674;SDS011;39574;50.534;8.500;2022-11-15T21:24:05;10.8;;;6.9;;
53674;SDS011;39574;50.534;8.500;2022-11-15T21:29:04;11.6;;;7.1;;
53674;SDS011;39574;50.534;8.500;2022-11-15T21:34:02;13.4;;;7.9;;
53674;SDS011;39574;50.534;8.500;2022-11-15T21:39:01;16.3;;;9.9;;
53674;SDS011;39574;50.534;8.500;2022-11-15T21:44:01;19.6;;;11.9;;
53674;SDS011;39574;50.534;8.500;2022-11-15T21:48:59;15.8;;;9.9;;
53674;SDS011;39574;50.534;8.500;2022-11-15T21:53:58;13.1;;;8.3;;
53674;SDS011;39574;50.534;8.500;2022-11-15T21:58:58;10.9;;;7.1;;
53674;SDS011;39574;50.534;8.500;2022-11-15T22:03:56;12.9;;;8.0;;
53674;SDS011;39574;50.534;8.500;2022-11-15T22:13:55;18.2;;;10.7;;
53674;SDS011;39574;50.534;8.500;2022-11-15T22:18:53;19.2;;;10.5;;
53674;SDS011;39574;50.534;8.500;2022-11-15T22:23:53;16.7;;;9.4;;
53674;SDS011;39574;50.534;8.500;2022-11-15T22:28:52;14.1;;;8.1;;
53674;SDS011;39574;50.534;8.500;2022-11-15T22:33:51;12.1;;;6.9;;
53674;SDS011;39574;50.534;8.500;2022-11-15T22:38:49;12.9;;;7.3;;
53674;SDS011;39574;50.534;8.500;2022-11-15T22:43:49;13.0;;;7.6;;
53674;SDS011;39574;50.534;8.500;2022-11-15T22:48:48;13.8;;;7.9;;
53674;SDS011;39574;50.534;8.500;2022-11-15T22:53:47;11.7;;;7.1;;
53674;SDS011;39574;50.534;8.500;2022-11-15T22:58:45;10.8;;;6.5;;
53674;SDS011;39574;50.534;8.500;2022-11-15T23:03:45;9.7;;;5.9;;
53674;SDS011;39574;50.534;8.500;2022-11-15T23:08:43;9.3;;;5.7;;
53674;SDS011;39574;50.534;8.500;2022-11-15T23:13:43;8.9;;;5.4;;
53674;SDS011;39574;50.534;8.500;2022-11-15T23:18:42;8.0;;;5.2;;
53674;SDS011;39574;50.534;8.500;2022-11-15T23:23:41;8.5;;;5.3;;
53674;SDS011;39574;50.534;8.500;2022-11-15T23:28:40;9.7;;;6.4;;
53674;SDS011;39574;50.534;8.500;2022-11-15T23:33:39;9.4;;;6.2;;
53674;SDS011;39574;50.534;8.500;2022-11-15T23:38:38;10.1;;;6.2;;
53674;SDS011;39574;50.534;8.500;2022-11-15T23:43:37;10.6;;;6.4;;
53674;SDS011;39574;50.534;8.500;2022-11-15T23:48:36;10.3;;;6.2;;
53674;SDS011;39574;50.534;8.500;2022-11-15T23:53:35;10.5;;;6.1;;
53674;SDS011;39574;50.534;8.500;2022-11-15T23:58:34;9.3;;;5.8;;
